| time (UTC) | temp F | wind direction | speed knots | gust knots | rain 1hr in | rain 24hr in | rain mn in | humidity % | barometer mb |
| 20260510104548 | 42 | 0 | 0.0 | 0.0 | 0.00 | 0.00 | 0.00 | 95 | 1014.6 |
| 20260510103044 | 42 | 0 | 0.0 | 0.0 | 0.00 | 0.00 | 0.00 | 94 | 1014.1 |
| 20260510101544 | 42 | 0 | 0.0 | 0.0 | 0.00 | 0.00 | 0.00 | 94 | 1014.0 |
| 20260510094551 | 42 | 0 | 0.0 | 0.0 | 0.00 | 0.00 | 0.00 | 94 | 1013.6 |
| 20260510093039 | 42 | 0 | 0.0 | 0.0 | 0.00 | 0.00 | 0.00 | 94 | 1013.7 |
| 20260510091539 | 42 | 0 | 0.0 | 0.0 | 0.00 | 0.00 | 0.00 | 94 | 1013.6 |
| 20260510090048 | 42 | 0 | 0.0 | 0.9 | 0.00 | 0.00 | 0.00 | 94 | 1013.4 |
| 20260510084602 | 43 | 0 | 0.0 | 0.0 | 0.00 | 0.00 | 0.00 | 94 | 1013.4 |
| 20260510083041 | 43 | 0 | 0.0 | 0.0 | 0.00 | 0.00 | 0.00 | 94 | 1013.4 |
| 20260510081548 | 43 | 0 | 0.0 | 0.0 | 0.00 | 0.00 | 0.00 | 93 | 1013.4 |
| 20260510080039 | 43 | 0 | 0.0 | 0.0 | 0.00 | 0.00 | 0.00 | 94 | 1013.3 |
| 20260510074542 | 42 | 202 | 0.0 | 1.7 | 0.00 | 0.00 | 0.00 | 93 | 1013.2 |
| 20260510073040 | 42 | 0 | 0.0 | 0.0 | 0.00 | 0.00 | 0.00 | 93 | 1013.3 |
| 20260510071545 | 42 | 0 | 0.0 | 0.0 | 0.00 | 0.00 | 0.00 | 93 | 1013.1 |
| 20260510070047 | 43 | 0 | 0.0 | 0.0 | 0.00 | 0.00 | 0.00 | 93 | 1013.1 |
| 20260510064538 | 43 | 0 | 0.0 | 0.0 | 0.00 | 0.00 | 0.00 | 92 | 1013.1 |
| 20260510063038 | 43 | 0 | 0.0 | 0.0 | 0.00 | 0.00 | 0.00 | 92 | 1013.1 |
| 20260510061541 | 43 | 0 | 0.0 | 0.0 | 0.00 | 0.00 | 0.00 | 92 | 1013.3 |
| 20260510060046 | 44 | 0 | 0.0 | 0.0 | 0.00 | 0.00 | 0.00 | 92 | 1013.1 |
| 20260510054542 | 44 | 0 | 0.0 | 0.0 | 0.00 | 0.00 | 0.00 | 90 | 1013.1 |
| 20260510053041 | 45 | 0 | 0.0 | 0.9 | 0.00 | 0.00 | 0.00 | 91 | 1013.1 |
| 20260510051543 | 45 | 0 | 0.0 | 0.9 | 0.00 | 0.00 | 0.00 | 90 | 1013.4 |
| 20260510050040 | 46 | 0 | 0.0 | 0.9 | 0.00 | 0.00 | 0.00 | 90 | 1013.4 |
| 20260510044538 | 46 | 0 | 0.0 | 0.9 | 0.00 | 0.00 | 0.00 | 88 | 1013.4 |
| 20260510043048 | 47 | 0 | 0.0 | 0.9 | 0.00 | 0.00 | 0.00 | 87 | 1013.5 |
| 20260510041540 | 47 | 241 | 0.9 | 2.6 | 0.00 | 0.00 | 0.00 | 90 | 1013.5 |
| 20260510040050 | 47 | 221 | 0.0 | 1.7 | 0.00 | 0.00 | 0.00 | 89 | 1013.3 |
| 20260510034544 | 47 | 0 | 0.0 | 0.0 | 0.00 | 0.00 | 0.00 | 87 | 1013.0 |
| 20260510033046 | 48 | 0 | 0.0 | 0.0 | 0.00 | 0.00 | 0.00 | 87 | 1013.0 |
| 20260510031542 | 49 | 0 | 0.0 | 0.0 | 0.00 | 0.00 | 0.00 | 85 | 1012.9 |
| 20260510030042 | 49 | 0 | 0.0 | 0.0 | 0.00 | 0.00 | 0.00 | 86 | 1012.8 |
| 20260510024544 | 49 | 0 | 0.0 | 0.0 | 0.00 | 0.00 | 0.00 | 85 | 1012.7 |
| 20260510023037 | 50 | 0 | 0.0 | 0.0 | 0.00 | 0.00 | 0.00 | 83 | 1012.4 |
| 20260510021543 | 51 | 0 | 0.0 | 0.0 | 0.00 | 0.00 | 0.00 | 81 | 1012.4 |
| 20260510020044 | 52 | 0 | 0.0 | 0.0 | 0.00 | 0.00 | 0.00 | 80 | 1012.2 |
| 20260510014543 | 53 | 0 | 0.0 | 0.0 | 0.00 | 0.00 | 0.00 | 79 | 1012.0 |
| 20260510013038 | 54 | 0 | 0.0 | 0.9 | 0.00 | 0.00 | 0.00 | 77 | 1011.7 |
| 20260510011542 | 55 | 0 | 0.0 | 0.9 | 0.00 | 0.00 | 0.00 | 75 | 1011.5 |
| 20260510010044 | 56 | 0 | 0.0 | 0.9 | 0.00 | 0.00 | 0.00 | 72 | 1011.4 |
| 20260510004544 | 58 | 0 | 0.0 | 0.9 | 0.00 | 0.00 | 0.00 | 69 | 1011.1 |
| 20260510003042 | 59 | 0 | 0.0 | 2.6 | 0.00 | 0.00 | 0.00 | 66 | 1011.0 |
| 20260510001541 | 60 | 250 | 1.7 | 6.1 | 0.00 | 0.00 | 0.00 | 64 | 1010.8 |
| 20260510000059 | 61 | 210 | 4.3 | 7.8 | 0.00 | 0.00 | 0.00 | 62 | 1010.8 |
| 20260509234555 | 62 | 254 | 1.7 | 7.0 | 0.00 | 0.00 | 0.00 | 61 | 1010.6 |
| 20260509233047 | 62 | 241 | 3.5 | 6.1 | 0.00 | 0.00 | 0.00 | 60 | 1010.5 |
| 20260509231544 | 62 | 232 | 1.7 | 6.1 | 0.00 | 0.00 | 0.00 | 61 | 1010.4 |
| 20260509230041 | 63 | 256 | 5.2 | 12.2 | 0.00 | 0.00 | 0.00 | 58 | 1010.3 |
| 20260509224537 | 63 | 230 | 4.3 | 7.8 | 0.00 | 0.00 | 0.00 | 58 | 1010.6 |
| 20260509223042 | 63 | 360 | 7.0 | 13.0 | 0.00 | 0.00 | 0.00 | 57 | 1010.7 |
| 20260509221546 | 64 | 255 | 8.7 | 13.0 | 0.00 | 0.00 | 0.00 | 55 | 1010.6 |
| 20260509220041 | 64 | 220 | 4.3 | 9.6 | 0.00 | 0.00 | 0.00 | 57 | 1010.8 |
| 20260509214542 | 63 | 261 | 6.1 | 11.3 | 0.00 | 0.00 | 0.00 | 55 | 1010.8 |
| 20260509213042 | 63 | 240 | 4.3 | 13.0 | 0.00 | 0.00 | 0.00 | 54 | 1010.6 |
| 20260509211543 | 63 | 227 | 2.6 | 10.4 | 0.00 | 0.00 | 0.00 | 54 | 1010.4 |
| 20260509210044 | 63 | 255 | 7.8 | 13.9 | 0.00 | 0.00 | 0.00 | 53 | 1010.6 |
| 20260509204550 | 63 | 240 | 7.0 | 12.2 | 0.00 | 0.00 | 0.00 | 50 | 1010.2 |
| 20260509203043 | 64 | 216 | 5.2 | 13.0 | 0.00 | 0.00 | 0.00 | 50 | 1010.1 |
| 20260509201540 | 64 | 261 | 4.3 | 9.6 | 0.00 | 0.00 | 0.00 | 51 | 1009.8 |
| 20260509200058 | 64 | 232 | 7.0 | 13.9 | 0.00 | 0.00 | 0.00 | 49 | 1009.9 |
| 20260509194540 | 64 | 257 | 5.2 | 12.2 | 0.00 | 0.00 | 0.00 | 47 | 1009.9 |
| 20260509193038 | 64 | 234 | 4.3 | 10.4 | 0.00 | 0.00 | 0.00 | 55 | 1009.9 |
| 20260509191544 | 64 | 244 | 6.1 | 9.6 | 0.00 | 0.00 | 0.00 | 54 | 1009.9 |
| 20260509190042 | 64 | 233 | 6.1 | 11.3 | 0.00 | 0.00 | 0.00 | 55 | 1010.0 |
| 20260509184554 | 64 | 219 | 9.6 | 13.0 | 0.00 | 0.00 | 0.00 | 57 | 1009.9 |
| 20260509183042 | 64 | 254 | 7.8 | 13.9 | 0.00 | 0.00 | 0.00 | 60 | 1010.1 |
| 20260509181548 | 63 | 281 | 3.5 | 8.7 | 0.00 | 0.00 | 0.00 | 61 | 1010.1 |
| 20260509180037 | 63 | 294 | 3.5 | 8.7 | 0.00 | 0.00 | 0.00 | 62 | 1010.1 |
| 20260509174540 | 62 | 320 | 7.0 | 11.3 | 0.00 | 0.00 | 0.00 | 61 | 1010.1 |
| 20260509173052 | 61 | 229 | 5.2 | 12.2 | 0.00 | 0.00 | 0.00 | 64 | 1010.2 |
| 20260509171539 | 61 | 193 | 2.6 | 9.6 | 0.00 | 0.00 | 0.00 | 63 | 1010.4 |
| 20260509170039 | 60 | 217 | 4.3 | 7.8 | 0.00 | 0.00 | 0.00 | 63 | 1010.4 |
| 20260509164545 | 60 | 231 | 5.2 | 10.4 | 0.00 | 0.00 | 0.00 | 63 | 1010.8 |
| 20260509163042 | 59 | 202 | 5.2 | 10.4 | 0.00 | 0.00 | 0.00 | 66 | 1010.9 |
| 20260509161538 | 59 | 242 | 5.2 | 10.4 | 0.00 | 0.00 | 0.00 | 65 | 1010.6 |
| 20260509160045 | 59 | 261 | 4.3 | 13.9 | 0.00 | 0.00 | 0.00 | 65 | 1010.6 |
| 20260509154540 | 59 | 225 | 2.6 | 7.8 | 0.00 | 0.00 | 0.00 | 68 | 1010.7 |
| 20260509153044 | 58 | 200 | 4.3 | 11.3 | 0.00 | 0.00 | 0.00 | 68 | 1010.8 |
| 20260509151549 | 57 | 261 | 5.2 | 10.4 | 0.00 | 0.00 | 0.00 | 67 | 1011.0 |
| 20260509150044 | 58 | 222 | 4.3 | 8.7 | 0.00 | 0.00 | 0.00 | 66 | 1010.7 |
| 20260509144600 | 58 | 244 | 6.1 | 10.4 | 0.00 | 0.00 | 0.00 | 65 | 1010.8 |
| 20260509143041 | 57 | 245 | 4.3 | 8.7 | 0.00 | 0.00 | 0.00 | 66 | 1010.7 |
| 20260509141541 | 58 | 267 | 5.2 | 9.6 | 0.00 | 0.00 | 0.00 | 66 | 1010.5 |
| 20260509140040 | 58 | 236 | 5.2 | 10.4 | 0.00 | 0.00 | 0.00 | 64 | 1010.5 |
| 20260509134601 | 58 | 236 | 6.1 | 13.0 | 0.00 | 0.00 | 0.00 | 64 | 1010.2 |
| 20260509133047 | 58 | 255 | 2.6 | 10.4 | 0.00 | 0.00 | 0.00 | 62 | 1010.1 |
| 20260509131541 | 57 | 232 | 4.3 | 9.6 | 0.00 | 0.00 | 0.00 | 64 | 1010.0 |
| 20260509130052 | 57 | 210 | 1.7 | 6.1 | 0.00 | 0.00 | 0.00 | 66 | 1010.4 |
| 20260509124538 | 56 | 265 | 0.9 | 3.5 | 0.00 | 0.00 | 0.00 | 67 | 1010.6 |
| 20260509123100 | 54 | 257 | 0.9 | 4.3 | 0.00 | 0.00 | 0.00 | 70 | 1010.7 |
| 20260509121555 | 51 | 209 | 0.9 | 2.6 | 0.00 | 0.00 | 0.00 | 75 | 1010.8 |
| 20260509120041 | 49 | 0 | 0.0 | 0.9 | 0.00 | 0.00 | 0.00 | 84 | 1010.7 |
| 20260509114541 | 48 | 0 | 0.0 | 0.0 | 0.00 | 0.00 | 0.00 | 86 | 1010.9 |
| 20260509113040 | 47 | 0 | 0.0 | 0.0 | 0.00 | 0.00 | 0.00 | 86 | 1010.7 |
| 20260509111551 | 47 | 0 | 0.0 | 0.0 | 0.00 | 0.00 | 0.00 | 85 | 1010.8 |
| 20260509110043 | 47 | 0 | 0.0 | 1.7 | 0.00 | 0.00 | 0.00 | 85 | 1010.7 |